sensor_id;sensor_type;location;lat;lon;timestamp;P1;durP1;ratioP1;P2;durP2;ratioP2
80247;SDS011;69560;52.206;21.018;2023-05-16T00:00:28;7.70;;;5.10;;
80247;SDS011;69560;52.206;21.018;2023-05-16T00:03:16;8.90;;;5.30;;
80247;SDS011;69560;52.206;21.018;2023-05-16T00:05:43;6.10;;;5.20;;
80247;SDS011;69560;52.206;21.018;2023-05-16T00:08:09;7.70;;;5.50;;
80247;SDS011;69560;52.206;21.018;2023-05-16T00:10:36;7.80;;;5.60;;
80247;SDS011;69560;52.206;21.018;2023-05-16T00:13:03;6.20;;;5.40;;
80247;SDS011;69560;52.206;21.018;2023-05-16T00:15:29;6.40;;;5.60;;
80247;SDS011;69560;52.206;21.018;2023-05-16T00:17:56;6.60;;;5.90;;
80247;SDS011;69560;52.206;21.018;2023-05-16T00:20:27;8.90;;;5.80;;
80247;SDS011;69560;52.206;21.018;2023-05-16T00:22:54;6.80;;;6.10;;
80247;SDS011;69560;52.206;21.018;2023-05-16T00:25:21;7.50;;;5.90;;
80247;SDS011;69560;52.206;21.018;2023-05-16T00:27:51;7.50;;;6.60;;
80247;SDS011;69560;52.206;21.018;2023-05-16T00:30:18;7.10;;;6.20;;
80247;SDS011;69560;52.206;21.018;2023-05-16T00:32:45;6.80;;;6.10;;
80247;SDS011;69560;52.206;21.018;2023-05-16T00:35:11;8.00;;;6.50;;
80247;SDS011;69560;52.206;21.018;2023-05-16T00:37:38;7.20;;;6.50;;
80247;SDS011;69560;52.206;21.018;2023-05-16T00:40:05;6.80;;;6.10;;
80247;SDS011;69560;52.206;21.018;2023-05-16T00:42:32;6.90;;;6.30;;
80247;SDS011;69560;52.206;21.018;2023-05-16T00:45:03;7.50;;;6.70;;
80247;SDS011;69560;52.206;21.018;2023-05-16T00:47:30;7.60;;;6.90;;
80247;SDS011;69560;52.206;21.018;2023-05-16T00:52:44;8.10;;;7.10;;
80247;SDS011;69560;52.206;21.018;2023-05-16T00:55:11;9.90;;;7.10;;
80247;SDS011;69560;52.206;21.018;2023-05-16T00:57:38;8.60;;;6.90;;
80247;SDS011;69560;52.206;21.018;2023-05-16T01:00:05;8.00;;;6.90;;
80247;SDS011;69560;52.206;21.018;2023-05-16T01:02:36;9.20;;;6.80;;
80247;SDS011;69560;52.206;21.018;2023-05-16T01:05:04;8.00;;;7.20;;
80247;SDS011;69560;52.206;21.018;2023-05-16T01:07:30;7.90;;;6.60;;
80247;SDS011;69560;52.206;21.018;2023-05-16T01:10:10;7.60;;;6.80;;
80247;SDS011;69560;52.206;21.018;2023-05-16T01:12:44;8.30;;;7.50;;
80247;SDS011;69560;52.206;21.018;2023-05-16T01:15:27;9.00;;;7.40;;
80247;SDS011;69560;52.206;21.018;2023-05-16T01:20:37;8.40;;;6.50;;
80247;SDS011;69560;52.206;21.018;2023-05-16T01:23:31;8.20;;;7.40;;
80247;SDS011;69560;52.206;21.018;2023-05-16T01:28:55;9.60;;;8.70;;
80247;SDS011;69560;52.206;21.018;2023-05-16T01:31:22;12.90;;;9.70;;
80247;SDS011;69560;52.206;21.018;2023-05-16T01:33:58;8.20;;;7.20;;
80247;SDS011;69560;52.206;21.018;2023-05-16T01:36:29;8.30;;;7.50;;
80247;SDS011;69560;52.206;21.018;2023-05-16T01:41:52;8.40;;;7.60;;
80247;SDS011;69560;52.206;21.018;2023-05-16T01:44:33;7.80;;;7.00;;
80247;SDS011;69560;52.206;21.018;2023-05-16T01:47:30;7.40;;;6.70;;
80247;SDS011;69560;52.206;21.018;2023-05-16T01:50:09;8.80;;;7.90;;
80247;SDS011;69560;52.206;21.018;2023-05-16T01:52:44;9.20;;;8.30;;
80247;SDS011;69560;52.206;21.018;2023-05-16T01:55:20;11.20;;;8.20;;
80247;SDS011;69560;52.206;21.018;2023-05-16T01:57:55;11.30;;;8.20;;
80247;SDS011;69560;52.206;21.018;2023-05-16T02:00:26;7.90;;;7.00;;
80247;SDS011;69560;52.206;21.018;2023-05-16T02:02:53;9.90;;;8.40;;
80247;SDS011;69560;52.206;21.018;2023-05-16T02:05:26;9.10;;;8.10;;
80247;SDS011;69560;52.206;21.018;2023-05-16T02:07:52;8.10;;;7.30;;
80247;SDS011;69560;52.206;21.018;2023-05-16T02:10:19;8.90;;;8.00;;
80247;SDS011;69560;52.206;21.018;2023-05-16T02:12:46;10.50;;;7.70;;
80247;SDS011;69560;52.206;21.018;2023-05-16T02:17:44;8.90;;;8.10;;
80247;SDS011;69560;52.206;21.018;2023-05-16T02:20:13;9.30;;;7.70;;
80247;SDS011;69560;52.206;21.018;2023-05-16T02:22:46;12.20;;;8.50;;
80247;SDS011;69560;52.206;21.018;2023-05-16T02:25:26;8.70;;;7.90;;
80247;SDS011;69560;52.206;21.018;2023-05-16T02:27:56;8.90;;;8.00;;
80247;SDS011;69560;52.206;21.018;2023-05-16T02:30:25;9.00;;;8.10;;
80247;SDS011;69560;52.206;21.018;2023-05-16T02:32:52;8.60;;;7.70;;
80247;SDS011;69560;52.206;21.018;2023-05-16T02:35:19;10.40;;;8.60;;
80247;SDS011;69560;52.206;21.018;2023-05-16T02:37:46;8.40;;;7.60;;
80247;SDS011;69560;52.206;21.018;2023-05-16T02:40:13;8.70;;;7.80;;
80247;SDS011;69560;52.206;21.018;2023-05-16T02:42:40;9.20;;;8.40;;
80247;SDS011;69560;52.206;21.018;2023-05-16T02:45:07;8.50;;;7.70;;
80247;SDS011;69560;52.206;21.018;2023-05-16T02:47:34;9.40;;;8.20;;
80247;SDS011;69560;52.206;21.018;2023-05-16T02:50:01;10.80;;;8.30;;
80247;SDS011;69560;52.206;21.018;2023-05-16T02:52:47;12.30;;;8.10;;
80247;SDS011;69560;52.206;21.018;2023-05-16T02:55:14;9.30;;;8.40;;
80247;SDS011;69560;52.206;21.018;2023-05-16T02:57:45;9.80;;;8.50;;
80247;SDS011;69560;52.206;21.018;2023-05-16T03:00:12;10.20;;;7.40;;
80247;SDS011;69560;52.206;21.018;2023-05-16T03:02:39;8.80;;;7.90;;
80247;SDS011;69560;52.206;21.018;2023-05-16T03:05:06;9.00;;;8.10;;
80247;SDS011;69560;52.206;21.018;2023-05-16T03:10:21;8.70;;;7.90;;
80247;SDS011;69560;52.206;21.018;2023-05-16T03:12:51;9.50;;;8.50;;
80247;SDS011;69560;52.206;21.018;2023-05-16T03:15:20;10.00;;;7.90;;
80247;SDS011;69560;52.206;21.018;2023-05-16T03:17:46;9.30;;;8.30;;
80247;SDS011;69560;52.206;21.018;2023-05-16T03:20:13;9.10;;;7.80;;
80247;SDS011;69560;52.206;21.018;2023-05-16T03:22:40;9.00;;;7.90;;
80247;SDS011;69560;52.206;21.018;2023-05-16T03:25:07;9.20;;;7.70;;
80247;SDS011;69560;52.206;21.018;2023-05-16T03:27:37;8.80;;;8.00;;
80247;SDS011;69560;52.206;21.018;2023-05-16T03:30:04;7.50;;;6.80;;
80247;SDS011;69560;52.206;21.018;2023-05-16T03:32:31;9.60;;;8.50;;
80247;SDS011;69560;52.206;21.018;2023-05-16T03:34:58;8.90;;;7.60;;
80247;SDS011;69560;52.206;21.018;2023-05-16T03:37:25;9.00;;;8.20;;
80247;SDS011;69560;52.206;21.018;2023-05-16T03:39:52;8.80;;;7.80;;
80247;SDS011;69560;52.206;21.018;2023-05-16T03:42:19;9.20;;;8.40;;
80247;SDS011;69560;52.206;21.018;2023-05-16T03:44:46;10.70;;;8.90;;
80247;SDS011;69560;52.206;21.018;2023-05-16T03:47:13;9.20;;;8.30;;
80247;SDS011;69560;52.206;21.018;2023-05-16T03:49:39;10.10;;;7.70;;
80247;SDS011;69560;52.206;21.018;2023-05-16T03:52:06;9.50;;;8.40;;
80247;SDS011;69560;52.206;21.018;2023-05-16T03:54:33;11.50;;;9.00;;
80247;SDS011;69560;52.206;21.018;2023-05-16T03:57:00;10.80;;;9.00;;
80247;SDS011;69560;52.206;21.018;2023-05-16T03:59:27;10.20;;;9.10;;
80247;SDS011;69560;52.206;21.018;2023-05-16T04:01:53;9.90;;;8.60;;
80247;SDS011;69560;52.206;21.018;2023-05-16T04:04:20;10.20;;;9.20;;
80247;SDS011;69560;52.206;21.018;2023-05-16T04:06:47;10.70;;;9.00;;
80247;SDS011;69560;52.206;21.018;2023-05-16T04:09:14;10.80;;;9.70;;
80247;SDS011;69560;52.206;21.018;2023-05-16T04:11:40;11.10;;;9.90;;
80247;SDS011;69560;52.206;21.018;2023-05-16T04:14:07;11.80;;;9.60;;
80247;SDS011;69560;52.206;21.018;2023-05-16T04:16:34;10.30;;;9.30;;
80247;SDS011;69560;52.206;21.018;2023-05-16T04:19:01;11.50;;;10.30;;
80247;SDS011;69560;52.206;21.018;2023-05-16T04:21:29;11.70;;;10.40;;
80247;SDS011;69560;52.206;21.018;2023-05-16T04:23:56;11.50;;;10.30;;
80247;SDS011;69560;52.206;21.018;2023-05-16T04:26:22;10.90;;;9.80;;
80247;SDS011;69560;52.206;21.018;2023-05-16T04:28:50;12.10;;;10.20;;
80247;SDS011;69560;52.206;21.018;2023-05-16T04:31:16;11.00;;;8.80;;
80247;SDS011;69560;52.206;21.018;2023-05-16T04:33:43;11.10;;;9.70;;
80247;SDS011;69560;52.206;21.018;2023-05-16T04:36:10;10.70;;;9.60;;
80247;SDS011;69560;52.206;21.018;2023-05-16T04:38:36;9.90;;;8.50;;
80247;SDS011;69560;52.206;21.018;2023-05-16T04:41:03;11.80;;;9.50;;
80247;SDS011;69560;52.206;21.018;2023-05-16T04:43:30;10.30;;;9.30;;
80247;SDS011;69560;52.206;21.018;2023-05-16T04:45:57;12.60;;;10.00;;
80247;SDS011;69560;52.206;21.018;2023-05-16T04:48:24;10.40;;;9.30;;
80247;SDS011;69560;52.206;21.018;2023-05-16T04:50:51;9.80;;;8.40;;
80247;SDS011;69560;52.206;21.018;2023-05-16T04:53:20;11.60;;;9.20;;
80247;SDS011;69560;52.206;21.018;2023-05-16T04:55:49;9.00;;;8.00;;
80247;SDS011;69560;52.206;21.018;2023-05-16T04:58:16;8.50;;;7.50;;
80247;SDS011;69560;52.206;21.018;2023-05-16T05:00:43;12.30;;;8.90;;
80247;SDS011;69560;52.206;21.018;2023-05-16T05:03:09;9.60;;;8.60;;
80247;SDS011;69560;52.206;21.018;2023-05-16T05:05:36;13.30;;;9.40;;
80247;SDS011;69560;52.206;21.018;2023-05-16T05:08:03;9.60;;;8.60;;
80247;SDS011;69560;52.206;21.018;2023-05-16T05:10:29;9.20;;;8.30;;
80247;SDS011;69560;52.206;21.018;2023-05-16T05:12:56;10.10;;;9.10;;
80247;SDS011;69560;52.206;21.018;2023-05-16T05:15:23;13.10;;;8.20;;
80247;SDS011;69560;52.206;21.018;2023-05-16T05:17:53;14.50;;;9.70;;
80247;SDS011;69560;52.206;21.018;2023-05-16T05:20:19;9.00;;;8.10;;
80247;SDS011;69560;52.206;21.018;2023-05-16T05:22:46;10.40;;;8.30;;
80247;SDS011;69560;52.206;21.018;2023-05-16T05:25:13;9.40;;;8.50;;
80247;SDS011;69560;52.206;21.018;2023-05-16T05:27:40;11.80;;;9.40;;
80247;SDS011;69560;52.206;21.018;2023-05-16T05:30:07;9.30;;;8.20;;
80247;SDS011;69560;52.206;21.018;2023-05-16T05:32:34;12.80;;;9.70;;
80247;SDS011;69560;52.206;21.018;2023-05-16T05:35:01;13.10;;;9.70;;
80247;SDS011;69560;52.206;21.018;2023-05-16T05:37:29;12.40;;;9.30;;
80247;SDS011;69560;52.206;21.018;2023-05-16T05:39:55;9.70;;;8.60;;
80247;SDS011;69560;52.206;21.018;2023-05-16T05:42:22;9.80;;;8.80;;
80247;SDS011;69560;52.206;21.018;2023-05-16T05:44:49;9.80;;;8.90;;
80247;SDS011;69560;52.206;21.018;2023-05-16T05:47:16;10.70;;;9.60;;
80247;SDS011;69560;52.206;21.018;2023-05-16T05:49:42;11.90;;;9.10;;
80247;SDS011;69560;52.206;21.018;2023-05-16T05:52:09;10.30;;;9.40;;
80247;SDS011;69560;52.206;21.018;2023-05-16T05:54:36;14.90;;;9.80;;
80247;SDS011;69560;52.206;21.018;2023-05-16T05:57:03;12.80;;;9.50;;
80247;SDS011;69560;52.206;21.018;2023-05-16T05:59:29;10.90;;;9.80;;
80247;SDS011;69560;52.206;21.018;2023-05-16T06:01:56;10.00;;;8.40;;
80247;SDS011;69560;52.206;21.018;2023-05-16T06:04:23;10.20;;;8.00;;
80247;SDS011;69560;52.206;21.018;2023-05-16T06:06:50;11.10;;;10.10;;
80247;SDS011;69560;52.206;21.018;2023-05-16T06:09:17;11.20;;;10.10;;
80247;SDS011;69560;52.206;21.018;2023-05-16T06:11:44;11.30;;;10.20;;
80247;SDS011;69560;52.206;21.018;2023-05-16T06:14:11;11.80;;;10.50;;
80247;SDS011;69560;52.206;21.018;2023-05-16T06:16:39;14.30;;;10.20;;
80247;SDS011;69560;52.206;21.018;2023-05-16T06:19:06;11.20;;;10.20;;
80247;SDS011;69560;52.206;21.018;2023-05-16T06:21:33;12.30;;;11.10;;
80247;SDS011;69560;52.206;21.018;2023-05-16T06:24:00;14.60;;;11.20;;
80247;SDS011;69560;52.206;21.018;2023-05-16T06:26:26;11.70;;;10.40;;
80247;SDS011;69560;52.206;21.018;2023-05-16T06:28:53;11.50;;;10.00;;
80247;SDS011;69560;52.206;21.018;2023-05-16T06:31:20;9.70;;;8.70;;
80247;SDS011;69560;52.206;21.018;2023-05-16T06:33:46;12.70;;;10.20;;
80247;SDS011;69560;52.206;21.018;2023-05-16T06:36:13;10.90;;;9.90;;
80247;SDS011;69560;52.206;21.018;2023-05-16T06:38:39;9.80;;;8.70;;
80247;SDS011;69560;52.206;21.018;2023-05-16T06:41:06;11.60;;;10.40;;
80247;SDS011;69560;52.206;21.018;2023-05-16T06:43:33;12.20;;;10.90;;
80247;SDS011;69560;52.206;21.018;2023-05-16T06:45:59;12.00;;;10.50;;
80247;SDS011;69560;52.206;21.018;2023-05-16T06:48:26;13.80;;;10.90;;
80247;SDS011;69560;52.206;21.018;2023-05-16T06:50:52;12.70;;;11.50;;
80247;SDS011;69560;52.206;21.018;2023-05-16T06:53:19;11.70;;;10.70;;
80247;SDS011;69560;52.206;21.018;2023-05-16T06:55:46;13.60;;;11.40;;
80247;SDS011;69560;52.206;21.018;2023-05-16T06:58:13;12.10;;;10.70;;
80247;SDS011;69560;52.206;21.018;2023-05-16T07:00:40;15.00;;;12.00;;
80247;SDS011;69560;52.206;21.018;2023-05-16T07:03:07;12.50;;;11.20;;
80247;SDS011;69560;52.206;21.018;2023-05-16T07:05:33;12.10;;;10.20;;
80247;SDS011;69560;52.206;21.018;2023-05-16T07:08:00;13.70;;;11.00;;
80247;SDS011;69560;52.206;21.018;2023-05-16T07:10:27;12.80;;;10.50;;
80247;SDS011;69560;52.206;21.018;2023-05-16T07:12:53;16.70;;;10.80;;
80247;SDS011;69560;52.206;21.018;2023-05-16T07:15:23;14.60;;;11.50;;
80247;SDS011;69560;52.206;21.018;2023-05-16T07:17:50;11.90;;;10.80;;
80247;SDS011;69560;52.206;21.018;2023-05-16T07:20:16;10.60;;;9.60;;
80247;SDS011;69560;52.206;21.018;2023-05-16T07:22:43;12.30;;;10.10;;
80247;SDS011;69560;52.206;21.018;2023-05-16T07:25:12;9.10;;;8.00;;
80247;SDS011;69560;52.206;21.018;2023-05-16T07:27:41;9.80;;;8.90;;
80247;SDS011;69560;52.206;21.018;2023-05-16T07:30:10;8.50;;;7.70;;
80247;SDS011;69560;52.206;21.018;2023-05-16T07:32:38;9.50;;;8.10;;
80247;SDS011;69560;52.206;21.018;2023-05-16T07:35:05;8.50;;;7.70;;
80247;SDS011;69560;52.206;21.018;2023-05-16T07:37:33;9.50;;;6.90;;
80247;SDS011;69560;52.206;21.018;2023-05-16T07:39:59;7.30;;;6.30;;
80247;SDS011;69560;52.206;21.018;2023-05-16T07:42:26;7.20;;;6.50;;
80247;SDS011;69560;52.206;21.018;2023-05-16T07:44:53;7.10;;;6.40;;
80247;SDS011;69560;52.206;21.018;2023-05-16T07:47:19;9.60;;;7.50;;
80247;SDS011;69560;52.206;21.018;2023-05-16T07:49:48;8.60;;;7.80;;
80247;SDS011;69560;52.206;21.018;2023-05-16T07:52:15;7.70;;;7.00;;
80247;SDS011;69560;52.206;21.018;2023-05-16T07:54:41;8.30;;;7.60;;
80247;SDS011;69560;52.206;21.018;2023-05-16T07:57:08;8.30;;;7.60;;
80247;SDS011;69560;52.206;21.018;2023-05-16T07:59:37;8.10;;;7.40;;
80247;SDS011;69560;52.206;21.018;2023-05-16T08:02:04;8.40;;;6.60;;
80247;SDS011;69560;52.206;21.018;2023-05-16T08:04:30;6.60;;;5.80;;
80247;SDS011;69560;52.206;21.018;2023-05-16T08:06:57;7.20;;;6.00;;
80247;SDS011;69560;52.206;21.018;2023-05-16T08:09:24;6.10;;;5.50;;
80247;SDS011;69560;52.206;21.018;2023-05-16T08:11:51;7.10;;;5.00;;
80247;SDS011;69560;52.206;21.018;2023-05-16T08:14:18;4.90;;;4.30;;
80247;SDS011;69560;52.206;21.018;2023-05-16T08:16:48;5.30;;;4.10;;
80247;SDS011;69560;52.206;21.018;2023-05-16T08:19:14;6.00;;;4.00;;
80247;SDS011;69560;52.206;21.018;2023-05-16T08:21:43;4.90;;;4.10;;
80247;SDS011;69560;52.206;21.018;2023-05-16T08:24:10;6.90;;;4.10;;
80247;SDS011;69560;52.206;21.018;2023-05-16T08:26:37;4.00;;;3.70;;
80247;SDS011;69560;52.206;21.018;2023-05-16T08:29:03;4.40;;;3.70;;
80247;SDS011;69560;52.206;21.018;2023-05-16T08:31:30;4.40;;;4.00;;
80247;SDS011;69560;52.206;21.018;2023-05-16T08:33:58;4.50;;;4.10;;
80247;SDS011;69560;52.206;21.018;2023-05-16T08:36:25;7.40;;;4.30;;
80247;SDS011;69560;52.206;21.018;2023-05-16T08:38:52;5.80;;;5.20;;
80247;SDS011;69560;52.206;21.018;2023-05-16T08:41:18;5.80;;;5.00;;
80247;SDS011;69560;52.206;21.018;2023-05-16T08:43:45;7.50;;;6.00;;
80247;SDS011;69560;52.206;21.018;2023-05-16T08:46:12;9.90;;;5.70;;
80247;SDS011;69560;52.206;21.018;2023-05-16T08:48:38;6.00;;;4.60;;
80247;SDS011;69560;52.206;21.018;2023-05-16T08:51:08;5.00;;;4.60;;
80247;SDS011;69560;52.206;21.018;2023-05-16T08:53:38;4.50;;;4.10;;
80247;SDS011;69560;52.206;21.018;2023-05-16T08:56:11;8.00;;;4.60;;
80247;SDS011;69560;52.206;21.018;2023-05-16T08:58:39;4.70;;;4.30;;
80247;SDS011;69560;52.206;21.018;2023-05-16T09:01:06;5.20;;;4.70;;
80247;SDS011;69560;52.206;21.018;2023-05-16T09:03:38;5.50;;;4.60;;
80247;SDS011;69560;52.206;21.018;2023-05-16T09:06:05;5.00;;;4.60;;
80247;SDS011;69560;52.206;21.018;2023-05-16T09:08:32;6.00;;;5.30;;
80247;SDS011;69560;52.206;21.018;2023-05-16T09:11:00;5.10;;;4.50;;
80247;SDS011;69560;52.206;21.018;2023-05-16T09:13:30;5.80;;;5.10;;
80247;SDS011;69560;52.206;21.018;2023-05-16T09:19:00;6.00;;;4.80;;
80247;SDS011;69560;52.206;21.018;2023-05-16T09:23:54;5.60;;;4.50;;
80247;SDS011;69560;52.206;21.018;2023-05-16T09:26:21;5.40;;;4.40;;
80247;SDS011;69560;52.206;21.018;2023-05-16T09:28:52;5.10;;;4.70;;
80247;SDS011;69560;52.206;21.018;2023-05-16T09:31:27;5.80;;;4.80;;
80247;SDS011;69560;52.206;21.018;2023-05-16T09:34:09;4.90;;;4.50;;
80247;SDS011;69560;52.206;21.018;2023-05-16T09:36:39;5.80;;;4.70;;
80247;SDS011;69560;52.206;21.018;2023-05-16T09:39:06;8.30;;;4.80;;
80247;SDS011;69560;52.206;21.018;2023-05-16T09:41:33;6.70;;;4.40;;
80247;SDS011;69560;52.206;21.018;2023-05-16T09:44:03;4.30;;;3.80;;
80247;SDS011;69560;52.206;21.018;2023-05-16T09:46:32;5.40;;;4.00;;
80247;SDS011;69560;52.206;21.018;2023-05-16T09:48:59;4.50;;;3.90;;
80247;SDS011;69560;52.206;21.018;2023-05-16T09:51:26;4.00;;;3.70;;
80247;SDS011;69560;52.206;21.018;2023-05-16T09:53:53;4.10;;;3.70;;
80247;SDS011;69560;52.206;21.018;2023-05-16T09:56:20;3.30;;;3.00;;
80247;SDS011;69560;52.206;21.018;2023-05-16T09:58:47;4.30;;;3.30;;
80247;SDS011;69560;52.206;21.018;2023-05-16T10:01:17;3.60;;;2.90;;
80247;SDS011;69560;52.206;21.018;2023-05-16T10:03:44;3.30;;;3.10;;
80247;SDS011;69560;52.206;21.018;2023-05-16T10:06:11;4.40;;;3.20;;
80247;SDS011;69560;52.206;21.018;2023-05-16T10:08:39;5.60;;;3.10;;
80247;SDS011;69560;52.206;21.018;2023-05-16T10:11:07;2.60;;;2.40;;
80247;SDS011;69560;52.206;21.018;2023-05-16T10:13:35;3.50;;;3.00;;
80247;SDS011;69560;52.206;21.018;2023-05-16T10:16:06;6.50;;;2.80;;
80247;SDS011;69560;52.206;21.018;2023-05-16T10:18:37;4.90;;;3.00;;
80247;SDS011;69560;52.206;21.018;2023-05-16T10:21:05;3.50;;;2.50;;
80247;SDS011;69560;52.206;21.018;2023-05-16T10:23:35;3.10;;;2.70;;
80247;SDS011;69560;52.206;21.018;2023-05-16T10:26:06;3.70;;;3.40;;
80247;SDS011;69560;52.206;21.018;2023-05-16T10:28:36;17.60;;;15.80;;
80247;SDS011;69560;52.206;21.018;2023-05-16T10:31:05;5.90;;;5.30;;
80247;SDS011;69560;52.206;21.018;2023-05-16T10:33:33;4.70;;;3.60;;
80247;SDS011;69560;52.206;21.018;2023-05-16T10:36:01;5.80;;;3.10;;
80247;SDS011;69560;52.206;21.018;2023-05-16T10:38:30;3.40;;;2.70;;
80247;SDS011;69560;52.206;21.018;2023-05-16T10:40:57;3.20;;;2.40;;
80247;SDS011;69560;52.206;21.018;2023-05-16T10:43:24;3.10;;;2.50;;
80247;SDS011;69560;52.206;21.018;2023-05-16T10:45:56;2.60;;;2.40;;
80247;SDS011;69560;52.206;21.018;2023-05-16T10:48:32;2.80;;;2.60;;
80247;SDS011;69560;52.206;21.018;2023-05-16T10:51:00;2.60;;;2.40;;
80247;SDS011;69560;52.206;21.018;2023-05-16T11:01:33;3.60;;;2.80;;
80247;SDS011;69560;52.206;21.018;2023-05-16T11:04:03;3.10;;;2.40;;
80247;SDS011;69560;52.206;21.018;2023-05-16T11:17:11;4.90;;;2.10;;
80247;SDS011;69560;52.206;21.018;2023-05-16T11:24:49;3.30;;;2.30;;
80247;SDS011;69560;52.206;21.018;2023-05-16T11:27:20;3.60;;;2.50;;
80247;SDS011;69560;52.206;21.018;2023-05-16T11:29:49;2.70;;;2.30;;
80247;SDS011;69560;52.206;21.018;2023-05-16T11:32:19;2.90;;;2.30;;
80247;SDS011;69560;52.206;21.018;2023-05-16T11:34:52;2.40;;;2.20;;
80247;SDS011;69560;52.206;21.018;2023-05-16T11:37:19;2.40;;;2.20;;
80247;SDS011;69560;52.206;21.018;2023-05-16T11:39:46;3.40;;;2.70;;
80247;SDS011;69560;52.206;21.018;2023-05-16T11:42:13;3.00;;;1.80;;
80247;SDS011;69560;52.206;21.018;2023-05-16T11:44:39;3.10;;;2.10;;
80247;SDS011;69560;52.206;21.018;2023-05-16T11:47:07;2.70;;;2.50;;
80247;SDS011;69560;52.206;21.018;2023-05-16T11:49:33;3.80;;;2.70;;
80247;SDS011;69560;52.206;21.018;2023-05-16T11:52:01;3.00;;;2.70;;
80247;SDS011;69560;52.206;21.018;2023-05-16T11:54:28;3.20;;;2.50;;
80247;SDS011;69560;52.206;21.018;2023-05-16T11:56:55;5.30;;;2.80;;
80247;SDS011;69560;52.206;21.018;2023-05-16T11:59:22;3.10;;;2.70;;
80247;SDS011;69560;52.206;21.018;2023-05-16T12:01:49;3.50;;;2.70;;
80247;SDS011;69560;52.206;21.018;2023-05-16T12:04:16;3.40;;;2.80;;
80247;SDS011;69560;52.206;21.018;2023-05-16T12:06:43;3.40;;;2.30;;
80247;SDS011;69560;52.206;21.018;2023-05-16T12:09:13;2.50;;;2.30;;
80247;SDS011;69560;52.206;21.018;2023-05-16T12:11:42;3.10;;;2.70;;
80247;SDS011;69560;52.206;21.018;2023-05-16T12:14:10;3.10;;;2.80;;
80247;SDS011;69560;52.206;21.018;2023-05-16T12:16:40;2.70;;;2.50;;
80247;SDS011;69560;52.206;21.018;2023-05-16T12:19:08;3.30;;;2.30;;
80247;SDS011;69560;52.206;21.018;2023-05-16T12:21:36;3.30;;;3.00;;
80247;SDS011;69560;52.206;21.018;2023-05-16T12:24:04;2.70;;;2.30;;
80247;SDS011;69560;52.206;21.018;2023-05-16T12:26:31;23.20;;;16.50;;
80247;SDS011;69560;52.206;21.018;2023-05-16T12:28:59;11.80;;;9.40;;
80247;SDS011;69560;52.206;21.018;2023-05-16T12:31:28;6.00;;;5.40;;
80247;SDS011;69560;52.206;21.018;2023-05-16T12:33:56;5.60;;;3.50;;
80247;SDS011;69560;52.206;21.018;2023-05-16T12:36:50;3.00;;;2.80;;
80247;SDS011;69560;52.206;21.018;2023-05-16T12:39:29;3.20;;;2.90;;
80247;SDS011;69560;52.206;21.018;2023-05-16T12:42:04;3.20;;;2.90;;
80247;SDS011;69560;52.206;21.018;2023-05-16T12:44:32;3.30;;;2.60;;
80247;SDS011;69560;52.206;21.018;2023-05-16T12:46:59;10.60;;;2.70;;
80247;SDS011;69560;52.206;21.018;2023-05-16T12:49:25;3.70;;;2.40;;
80247;SDS011;69560;52.206;21.018;2023-05-16T12:51:52;4.10;;;2.70;;
80247;SDS011;69560;52.206;21.018;2023-05-16T12:54:23;3.90;;;2.60;;
80247;SDS011;69560;52.206;21.018;2023-05-16T12:56:50;6.90;;;2.60;;
80247;SDS011;69560;52.206;21.018;2023-05-16T12:59:17;3.00;;;2.70;;
80247;SDS011;69560;52.206;21.018;2023-05-16T13:01:45;6.00;;;2.70;;
80247;SDS011;69560;52.206;21.018;2023-05-16T13:04:11;4.10;;;2.50;;
80247;SDS011;69560;52.206;21.018;2023-05-16T13:06:43;3.10;;;2.50;;
80247;SDS011;69560;52.206;21.018;2023-05-16T13:09:09;2.80;;;2.60;;
80247;SDS011;69560;52.206;21.018;2023-05-16T13:11:36;6.30;;;3.00;;
80247;SDS011;69560;52.206;21.018;2023-05-16T13:14:03;3.60;;;2.70;;
80247;SDS011;69560;52.206;21.018;2023-05-16T13:16:29;7.20;;;2.90;;
80247;SDS011;69560;52.206;21.018;2023-05-16T13:18:56;7.00;;;3.40;;
80247;SDS011;69560;52.206;21.018;2023-05-16T13:21:24;3.10;;;2.80;;
80247;SDS011;69560;52.206;21.018;2023-05-16T13:23:53;4.00;;;2.90;;
80247;SDS011;69560;52.206;21.018;2023-05-16T13:26:19;3.50;;;3.20;;
80247;SDS011;69560;52.206;21.018;2023-05-16T13:28:47;3.60;;;3.30;;
80247;SDS011;69560;52.206;21.018;2023-05-16T13:31:18;3.10;;;2.80;;
80247;SDS011;69560;52.206;21.018;2023-05-16T13:33:44;3.10;;;2.80;;
80247;SDS011;69560;52.206;21.018;2023-05-16T13:36:11;4.80;;;3.20;;
80247;SDS011;69560;52.206;21.018;2023-05-16T13:38:38;3.50;;;3.20;;
80247;SDS011;69560;52.206;21.018;2023-05-16T13:41:04;10.30;;;3.40;;
80247;SDS011;69560;52.206;21.018;2023-05-16T13:43:31;3.90;;;3.20;;
80247;SDS011;69560;52.206;21.018;2023-05-16T13:45:58;5.20;;;4.00;;
80247;SDS011;69560;52.206;21.018;2023-05-16T13:48:24;5.50;;;3.60;;
80247;SDS011;69560;52.206;21.018;2023-05-16T13:50:51;11.60;;;8.80;;
80247;SDS011;69560;52.206;21.018;2023-05-16T13:53:18;16.50;;;13.00;;
80247;SDS011;69560;52.206;21.018;2023-05-16T13:55:45;5.60;;;4.10;;
80247;SDS011;69560;52.206;21.018;2023-05-16T13:58:11;3.50;;;3.00;;
80247;SDS011;69560;52.206;21.018;2023-05-16T14:00:38;3.70;;;2.30;;
80247;SDS011;69560;52.206;21.018;2023-05-16T14:03:05;3.40;;;2.60;;
80247;SDS011;69560;52.206;21.018;2023-05-16T14:05:31;4.50;;;2.60;;
80247;SDS011;69560;52.206;21.018;2023-05-16T14:07:58;2.80;;;2.60;;
80247;SDS011;69560;52.206;21.018;2023-05-16T14:10:24;2.60;;;2.40;;
80247;SDS011;69560;52.206;21.018;2023-05-16T14:12:51;3.40;;;2.30;;
80247;SDS011;69560;52.206;21.018;2023-05-16T14:15:18;3.20;;;2.70;;
80247;SDS011;69560;52.206;21.018;2023-05-16T14:17:45;3.10;;;2.10;;
80247;SDS011;69560;52.206;21.018;2023-05-16T14:20:11;2.90;;;2.40;;
80247;SDS011;69560;52.206;21.018;2023-05-16T14:22:43;3.40;;;2.50;;
80247;SDS011;69560;52.206;21.018;2023-05-16T14:25:10;4.70;;;2.80;;
80247;SDS011;69560;52.206;21.018;2023-05-16T14:27:37;7.90;;;5.30;;
80247;SDS011;69560;52.206;21.018;2023-05-16T14:30:04;3.80;;;2.40;;
80247;SDS011;69560;52.206;21.018;2023-05-16T14:32:32;2.80;;;2.00;;
80247;SDS011;69560;52.206;21.018;2023-05-16T14:35:01;2.40;;;2.20;;
80247;SDS011;69560;52.206;21.018;2023-05-16T14:37:30;2.40;;;2.20;;
80247;SDS011;69560;52.206;21.018;2023-05-16T14:39:57;2.60;;;2.40;;
80247;SDS011;69560;52.206;21.018;2023-05-16T14:42:26;3.60;;;2.30;;
80247;SDS011;69560;52.206;21.018;2023-05-16T14:44:53;7.00;;;3.50;;
80247;SDS011;69560;52.206;21.018;2023-05-16T14:47:43;4.10;;;2.60;;
80247;SDS011;69560;52.206;21.018;2023-05-16T14:53:18;8.30;;;2.30;;
80247;SDS011;69560;52.206;21.018;2023-05-16T14:55:48;2.80;;;2.30;;
80247;SDS011;69560;52.206;21.018;2023-05-16T14:58:43;2.50;;;2.30;;
80247;SDS011;69560;52.206;21.018;2023-05-16T15:01:09;2.90;;;2.20;;
80247;SDS011;69560;52.206;21.018;2023-05-16T15:03:46;2.30;;;2.10;;
80247;SDS011;69560;52.206;21.018;2023-05-16T15:06:13;2.20;;;2.00;;
80247;SDS011;69560;52.206;21.018;2023-05-16T15:08:40;2.40;;;2.00;;
80247;SDS011;69560;52.206;21.018;2023-05-16T15:11:09;3.60;;;2.10;;
80247;SDS011;69560;52.206;21.018;2023-05-16T15:13:36;4.40;;;3.10;;
80247;SDS011;69560;52.206;21.018;2023-05-16T15:16:03;3.10;;;2.80;;
80247;SDS011;69560;52.206;21.018;2023-05-16T15:18:30;2.70;;;2.50;;
80247;SDS011;69560;52.206;21.018;2023-05-16T15:20:56;2.30;;;1.80;;
80247;SDS011;69560;52.206;21.018;2023-05-16T15:23:23;3.40;;;2.20;;
80247;SDS011;69560;52.206;21.018;2023-05-16T15:25:49;3.70;;;2.40;;